aviador You're here:

LZTT Decoded Metar

POPRAD in SLOVAKIA
Report Time2017-10-24 02:00:00
UTC Time2017-10-24 02:21:55
Flight Rules vfr VFR
Wind300° at 03 kt
W.Decomp.*RWY 27: 2.7 kt HW 1.3 kt RCW
RWY 25: 2.1 kt HW 2.2 kt RCW
W.Rank300° ranks 12
Current wind is below 300° avg. (4.3)
Visibility9999 m
Phenomena:N/A
Clouds:Few 013 Hf
Expected CloudBase > 400 ft AGL from Temp-Dew spread
CeilingNone
Temp03°C (ISA -7)
Dew Point02°C (93% RH)
AAT0.2°C
QNH1013 hPa
Density Alt1,532 ft
Elevation2,320 ft
Report Wrong Elevation
Raw Report
LZTT 240200Z 30003KT 250V360 9999 FEW013 03/02 Q1013=

Extra information for LZTT:More info

Metar Taf Metar & Taf Last 4 Metars F.Rules Stats Wind Profile Meteogram Temp Stats Airport Information Weather charts Add Link Nearby VenuesMetar ALERT Operation Metar Decoded Social comments